x

8452944 - Conimicut Light, Ri (cptr1) Weather Station

8:18 - Mon 1st Sep 2014 All times are EDT. -4 hours from GMT.

  • Wind
    5mph, 6mph gusts
  • Sea Temp 73°f
  • Aire Temp 72°f
  • Sea Pressure 1015.6mb
  • 8452944 - Conimicut Light, Ri
  • 8452944 - Conimicut Light, Ri

More Historic Weather Station data

Upgrade to MSW Pro to gain access to the past 30 days of data for over 8000 Wavebouys and Weather Stations around the globe.

Join Pro

Comparision Forecast

View Surf forecast
   
lun 09/01 8:18 5 6 mph 1015.6mb 73f 72f
8:12 5 7 mph 1015.7mb 73f 72f
8:06 7
mph
1015.6mb 73f 72f
8:00 5 6 mph 1015.6mb 73f 72f
7:54 5 6 mph 1015.5mb 73f 72f
7:48 6 8 mph 1015.5mb 73f 72f
7:42 8
mph
1015.5mb 73f 72f
7:36 8 9 mph 1015.6mb 73f 72f
7:30 9 10 mph 1015.7mb 73f 72f
7:24 9
mph
1015.6mb 73f 72f
7:18 9 10 mph 1015.7mb 73f 72f
7:12 8 9 mph 1015.7mb 73f 72f
7:06 9
mph
1015.7mb 73f 72f
7:00 8 9 mph 1015.8mb 73f 72f
6:54 8 9 mph 1015.6mb 73f 72f
6:48 7 9 mph 1015.6mb 73f 72f
6:42 10 11 mph 1015.7mb 73f 72f
6:36 10 11 mph 1015.7mb 73f 72f
6:30 9 10 mph 1015.7mb 73f 72f
6:24 10 14 mph 1015.7mb 73f 72f
6:18 13 14 mph 1015.7mb 73f 72f
6:12 11 13 mph 1015.6mb 73f 72f
6:06 10 11 mph 1015.5mb 73f 72f
6:00 10 11 mph 1015.5mb 73f 72f
5:54 10
mph
1015.5mb 73f 72f
5:48 8 9 mph 1015.4mb 73f 73f
5:42 8
mph
1015.4mb 73f 72f
5:36 6 7 mph 1015.3mb 73f 73f
5:30 5 7 mph 1015.3mb 73f 73f
5:24 5 6 mph 1015.3mb 73f 73f
5:18  -  5 mph 1015.2mb 73f 73f
5:12 5 8 mph 1015.1mb 73f 73f
5:06 7 10 mph 1015.1mb 73f 73f
5:00 9 10 mph 1015.1mb 73f 73f
4:54 9 11 mph 1015mb 73f 73f
4:48 9 11 mph 1014.8mb 73f 73f
4:42 11 14 mph 1014.8mb 73f 73f
4:36 13 14 mph 1014.7mb 73f 73f
4:30 10
mph
1014.7mb 73f 73f
4:24 9 10 mph 1014.7mb 73f 73f
4:18 8
mph
1014.7mb 73f 73f
4:12 7 9 mph 1014.5mb 73f 73f
4:06 8 9 mph 1014.5mb 73f 73f
4:00 7 10 mph 1014.5mb 73f 73f
3:54 7 10 mph 1014.5mb 73f 73f
3:48 9 11 mph 1014.6mb 73f 74f
3:42 8 10 mph 1014.6mb 73f 74f
3:36 8 10 mph 1014.6mb 73f 74f
3:30 8 9 mph 1014.6mb 73f 73f
3:24 7 11 mph 1014.6mb 73f 73f
3:18 8 11 mph 1014.5mb 73f 73f
3:12 9 11 mph 1014.5mb 73f 74f
3:06 9 10 mph 1014.6mb 73f 73f
3:00 9 11 mph 1014.7mb 73f 73f
2:54 10 11 mph 1014.8mb 73f 73f
2:48 11 13 mph 1014.8mb 73f 73f
2:42 11 13 mph 1014.7mb 73f 73f
2:36 11 13 mph 1014.6mb 73f 73f
2:30 10 13 mph 1014.6mb 73f 73f
2:24 11 13 mph 1014.6mb 73f 73f
2:18 11 14 mph 1014.6mb 73f 74f
2:12 11 13 mph 1014.6mb 73f 74f
2:06 11 15 mph 1014.7mb 73f 73f
2:00 11 14 mph 1014.7mb 73f 73f
1:54 13 14 mph 1014.7mb 73f 73f
1:48 10 13 mph 1014.7mb 73f 73f
1:42 11 13 mph 1014.7mb 73f 73f
1:36 10 11 mph 1014.7mb 73f 73f
1:30 10
mph
1014.7mb 73f 73f
1:24 8 9 mph 1014.6mb 73f 73f
1:18 8 10 mph 1014.5mb 73f 74f
1:12 8 9 mph 1014.6mb 73f 74f
1:06 8 9 mph 1014.6mb 73f 74f
1:00 8 9 mph 1014.6mb 73f 74f
12:54 8 9 mph 1014.7mb 73f 74f
12:48 9 11 mph 1014.8mb 73f 74f
12:42 10 11 mph 1014.8mb 73f 74f
12:36 8 10 mph 1014.9mb 73f 74f
12:30 8 13 mph 1014.9mb 73f 73f
12:24 8 10 mph 1014.9mb 73f 73f
12:18 8 10 mph 1015mb 73f 73f
12:12 9 11 mph 1014.9mb 73f 73f
12:06 9 11 mph 1014.9mb 73f 73f
12:00 10 13 mph 1014.9mb 73f 73f
dom 08/31 11:54 9 13 mph 1014.9mb 73f 73f
11:48 11 17 mph 1014.8mb 73f 73f
11:42 16 21 mph 1014.7mb 73f 73f
11:36 17 21 mph 1014.5mb 73f 73f
11:30 21 22 mph 1014.4mb 73f 73f
11:24 21 23 mph 1014.5mb 73f 73f
11:18 22 23 mph 1014.6mb 73f 73f
11:12 22 23 mph 1014.6mb 73f 73f
11:06 20 22 mph 1014.7mb 73f 73f
11:00 20 23 mph 1014.7mb 73f 73f
10:54 21 24 mph 1014.7mb 73f 73f
10:48 23 24 mph 1014.7mb 73f 73f
10:42 24 26 mph 1014.7mb 73f 73f
10:36 23 25 mph 1014.7mb 73f 73f
10:30 21 22 mph 1014.8mb 73f 73f
10:24 16 17 mph 1014.9mb 73f 73f
10:18 13 15 mph 1015.1mb 73f 73f
10:12 8 14 mph 1015.2mb 73f 73f
10:06 15 21 mph 1015.3mb 73f 73f
10:00 18 23 mph 1015.1mb 73f 73f
9:54 20 22 mph 1015.1mb 73f 73f
9:48 18 21 mph 1015.1mb 73f 73f
9:42 15 18 mph 1015.1mb 73f 73f
9:36 14 18 mph 1015.4mb 73f 73f
9:30 16 22 mph 1015.4mb 73f 74f
9:24 16 22 mph 1015.4mb 73f 74f
9:18 18 21 mph 1015.4mb 73f 74f
9:12 20 22 mph 1015.4mb 73f 74f
9:06 21 23 mph 1015.3mb 73f 74f
9:00 20 22 mph 1015.2mb 73f 74f
8:54 20 22 mph 1015.2mb 73f 74f
8:48 16 20 mph 1015.2mb 73f 74f
8:42 14 16 mph 1015.5mb 73f 74f
8:36 15 16 mph 1015.6mb 73f 74f
8:30 15 18 mph 1015.6mb 73f 74f
8:24 14 18 mph 1015.5mb 73f 74f
8:18 17 21 mph 1015.3mb 73f 74f
8:12 16 18 mph 1015.3mb 73f 74f
8:06 15 17 mph 1015.4mb 73f 74f
8:00 14 16 mph 1015.4mb 73f 73f
7:54 15 18 mph 1015.3mb 73f 73f
7:48 17 18 mph 1015.2mb 73f 73f
7:42 17 18 mph 1015.1mb 73f 73f
7:36 17 18 mph 1015mb 73f 73f
7:00 21 23 mph 1015.3mb 73f 73f
6:54 18 21 mph 1015.2mb 73f 73f
6:48 18 20 mph 1015.2mb 73f 73f
6:42 17 20 mph 1015.3mb 73f 73f
6:36 20 22 mph 1015.3mb 73f 74f
6:30 18 22 mph 1015.5mb 73f 74f
6:24 22 24 mph 1015.6mb 73f 74f
6:18 23 25 mph 1015.4mb 73f 74f
6:12 21 23 mph 1015.3mb 73f 74f
6:06 20 22 mph 1015.4mb 73f 74f
6:00 21 23 mph 1015.4mb 73f 74f
5:54 22 23 mph 1015.4mb 73f 74f
5:48 21 23 mph 1015.5mb 73f 74f
5:42 20 23 mph 1015.5mb 72f 74f
5:36 22 24 mph 1015.3mb 72f 74f
5:30 23 24 mph 1015.2mb 72f 74f
5:24 22 23 mph 1015.4mb 72f 74f
5:18 21 22 mph 1015.4mb 72f 75f
5:12 21 22 mph 1015.4mb 72f 75f
5:06 20 22 mph 1015.3mb 72f 75f
5:00 20 22 mph 1015.3mb 72f 75f
4:54 20 21 mph 1015.3mb 72f 75f
4:48 17 22 mph 1015.3mb 72f 75f
4:42 20 22 mph 1015.2mb 72f 76f
4:36 21 22 mph 1015.3mb 72f 75f
4:30 20 22 mph 1015.2mb 72f 75f
4:24 16 20 mph 1015.3mb 72f 75f
4:18 18 21 mph 1015.3mb 72f 76f
4:12 16 20 mph 1015.4mb 72f 75f
4:06 17 18 mph 1015.4mb 72f 74f
4:00 18
mph
1015.5mb 72f 75f
3:54 16 20 mph 1015.6mb 72f 75f
3:48 20 21 mph 1015.7mb 72f 75f
3:42 18 20 mph 1015.8mb 72f 75f
3:36 17 21 mph 1016mb 72f 75f
3:30 20 21 mph 1015.9mb 72f 75f
3:24 18 20 mph 1016mb 72f 75f
3:18 15 16 mph 1016.1mb 72f 75f
3:12 14 16 mph 1016mb 72f 75f
3:06 13 16 mph 1016.1mb 72f 75f
3:00 14 17 mph 1016.2mb 72f 75f
2:54 16 17 mph 1016.2mb 72f 76f
2:48 15 16 mph 1016.3mb 72f 77f
2:42 16 18 mph 1016.4mb 72f 78f
2:36 9 13 mph 1016.6mb 72f 76f
2:30 13 17 mph 1016.6mb 73f 75f
2:24 15 18 mph 1016.6mb 72f 75f
2:18 17 18 mph 1016.7mb 72f 75f
2:12 17 18 mph 1016.6mb 72f 75f
2:06 17 21 mph 1016.8mb 72f 74f
2:00 18 21 mph 1016.9mb 72f 74f
1:54 17 20 mph 1017mb 72f 74f
1:48 17 18 mph 1017.1mb 72f 74f
1:42 17 18 mph 1017.1mb 72f 75f
1:36 15 17 mph 1017.2mb 72f 75f
1:30 17 18 mph 1017.2mb 72f 74f
1:24 17 18 mph 1017.2mb 72f 74f
1:18 16 17 mph 1017.3mb 72f 74f
1:12 14 15 mph 1017.4mb 72f 75f
1:06 14 15 mph 1017.4mb 72f 76f
1:00 13 14 mph 1017.4mb 72f 75f
12:54 14 17 mph 1017.5mb 72f 75f
12:48 17 21 mph 1017.5mb 72f 76f
12:42 15 18 mph 1017.6mb 72f 76f
12:36 15 18 mph 1017.7mb 72f 76f
12:30 14 22 mph 1017.7mb 72f 76f
12:24 16 20 mph 1017.8mb 72f 76f
12:18 16 21 mph 1017.8mb 72f 75f
12:12 18 21 mph 1017.8mb 72f 75f
12:06 18 21 mph 1017.8mb 72f 75f
12:00 18 20 mph 1018mb 72f 75f
11:54 18 20 mph 1018mb 72f 75f
11:48 18 21 mph 1018.1mb 72f 75f
11:42 16 20 mph 1018.2mb 72f 75f
11:36 21 23 mph 1018.1mb 72f 76f
11:30 17 20 mph 1018.2mb 72f 75f
11:24 16 20 mph 1018.3mb 72f 75f
11:18 17 23 mph 1018.4mb 72f 76f
11:12 17 21 mph 1018.5mb 72f 76f
11:06 17 21 mph 1018.5mb 72f 76f
11:00 14 21 mph 1018.7mb 72f 76f
10:54 17 22 mph 1018.7mb 72f 76f
10:48 17 22 mph 1018.7mb 72f 76f
10:42 13 17 mph 1018.8mb 72f 76f
10:36 16 20 mph 1018.8mb 72f 76f
10:30 17 21 mph 1018.8mb 72f 75f
10:24 17 20 mph 1018.8mb 72f 74f
10:18 17 20 mph 1018.7mb 72f 75f
10:12 16 20 mph 1018.8mb 72f 74f
10:06 17 21 mph 1018.8mb 72f 74f
10:00 16 18 mph 1018.9mb 72f 74f
9:54 16 20 mph 1019mb 72f 74f
9:48 15 20 mph 1019mb 72f 74f
9:42 16 18 mph 1019.1mb 72f 74f
9:36 17 18 mph 1019.1mb 72f 74f
9:30 15 17 mph 1019.2mb 72f 74f
9:24 14 16 mph 1019.2mb 72f 73f
9:18 15 17 mph 1019.2mb 72f 72f
9:12 15 17 mph 1019.2mb 72f 72f
9:06 16 18 mph 1019.2mb 72f 72f
9:00 17 20 mph 1019.2mb 72f 72f
8:54 17 20 mph 1019.2mb 72f 72f
8:48 17 21 mph 1019.2mb 72f 72f
8:42 18 20 mph 1019.2mb 72f 72f
8:36 17 20 mph 1019.2mb 72f 72f
8:30 17 20 mph 1019.3mb 72f 72f
8:24 16 18 mph 1019.3mb 72f 71f
8:18 16 18 mph 1019.3mb 72f 71f
8:12 15 16 mph 1019.4mb 72f 71f
8:06 14 16 mph 1019.4mb 72f 71f
8:00 15 17 mph 1019.5mb 71f 71f
7:54 15 18 mph 1019.4mb 71f 71f
7:48 16 17 mph 1019.4mb 71f 71f
7:42 14 16 mph 1019.4mb 71f 71f
7:36 14 16 mph 1019.5mb 71f 71f
7:30 13 14 mph 1019.6mb 71f 71f
7:24 13 15 mph 1019.6mb 71f 71f
7:18 13 16 mph 1019.6mb 71f 71f
7:12 15 16 mph 1019.6mb 71f 71f
7:06 14 17 mph 1019.6mb 71f 71f
7:00 14 16 mph 1019.7mb 71f 71f
6:54 13 15 mph 1019.8mb 71f 71f
6:48 13 14 mph 1019.7mb 72f 71f
6:42 11 14 mph 1019.7mb 72f 71f
6:36 11 14 mph 1019.8mb 72f 71f
6:30 13 15 mph 1019.7mb 72f 71f
6:24 10 14 mph 1019.7mb 72f 71f
6:18 13 17 mph 1019.8mb 72f 71f
6:12 14 17 mph 1019.8mb 72f 71f
6:06 15 16 mph 1019.7mb 72f 71f
6:00 15 17 mph 1019.8mb 72f 71f
5:54 16 18 mph 1019.8mb 72f 71f
5:48 15 17 mph 1019.8mb 72f 71f
5:42 14 16 mph 1019.7mb 72f 71f
5:36 15 17 mph 1019.7mb 72f 71f
5:30 15 17 mph 1019.8mb 72f 71f
5:24 15 16 mph 1019.7mb 72f 71f
5:18 15 18 mph 1019.7mb 72f 71f
5:12 14 16 mph 1019.8mb 72f 71f
5:06 13 16 mph 1019.8mb 72f 71f
5:00 13 16 mph 1019.8mb 72f 70f
4:54 13 17 mph 1019.9mb 72f 71f
4:48 14 17 mph 1019.9mb 72f 71f
4:42 15 17 mph 1019.9mb 72f 70f
4:36 14 18 mph 1019.9mb 72f 71f
4:30 14 20 mph 1019.9mb 72f 71f
4:24 17 21 mph 1019.9mb 72f 71f
4:18 17 22 mph 1019.8mb 72f 71f
4:12 16 18 mph 1019.9mb 72f 70f
4:06 15 18 mph 1019.9mb 72f 70f
4:00 14 15 mph 1020.1mb 72f 70f
3:54 14 18 mph 1020.1mb 72f 70f
3:48 14 18 mph 1020.1mb 72f 70f
3:42 16 18 mph 1020.1mb 72f 70f
3:36 17 20 mph 1020.1mb 72f 70f
3:30 18 22 mph 1020.2mb 72f 70f
3:24 17 20 mph 1020.3mb 72f 70f
3:18 18 21 mph 1020.3mb 72f 70f
3:12 17 20 mph 1020.3mb 72f 70f
3:06 15 20 mph 1020.3mb 72f 70f
3:00 15 18 mph 1020.4mb 72f 70f
2:54 17 20 mph 1020.3mb 72f 70f
2:48 18 22 mph 1020.3mb 72f 70f
2:42 17 22 mph 1020.4mb 72f 70f
2:36 16 21 mph 1020.4mb 72f 70f
2:30 16 20 mph 1020.5mb 72f 70f
2:24 14 18 mph 1020.6mb 72f 70f
2:18 17 18 mph 1020.7mb 72f 70f
2:12 17 18 mph 1020.7mb 72f 70f
2:06 16 20 mph 1020.7mb 72f 70f
2:00 17 20 mph 1020.7mb 72f 69f
1:54 17 18 mph 1020.7mb 72f 69f
1:48 15 17 mph 1020.8mb 72f 69f
1:42 16 20 mph 1020.9mb 72f 69f
1:36 16 20 mph 1021mb 72f 69f
1:30 16 17 mph 1020.9mb 72f 69f
1:24 16 18 mph 1020.9mb 72f 69f
1:18 15 17 mph 1021mb 72f 69f
1:12 15 18 mph 1021mb 72f 69f
1:06 14 16 mph 1021mb 72f 69f
1:00 14 16 mph 1021.1mb 72f 69f
12:54 14 17 mph 1021.2mb 72f 69f
12:48 14 17 mph 1021.1mb 72f 69f
12:42 14 17 mph 1021.2mb 72f 69f
12:36 14 17 mph 1021.2mb 72f 69f
12:30 14 16 mph 1021.1mb 72f 69f
12:24 14 20 mph 1021.1mb 72f 69f
12:18 15 17 mph 1021.1mb 72f 69f
12:12 15 17 mph 1021.1mb 72f 68f
12:06 14 16 mph 1021.1mb 72f 68f
12:00 14 16 mph 1021.2mb 72f 68f
sáb 08/30 11:54 13 16 mph 1021.2mb 72f 68f
11:48 14 15 mph 1021.3mb 72f 68f
11:42 14 15 mph 1021.3mb 72f 68f
11:36 13 15 mph 1021.4mb 72f 68f
11:30 13 15 mph 1021.4mb 72f 68f
11:24 13 14 mph 1021.4mb 72f 68f
11:18 13 16 mph 1021.5mb 72f 68f
11:12 13 17 mph 1021.6mb 72f 68f
11:06 14 17 mph 1021.5mb 72f 68f
11:00 14 16 mph 1021.5mb 72f 68f
10:54 13 17 mph 1021.5mb 72f 68f
10:48 14 16 mph 1021.6mb 72f 68f
10:42 14 16 mph 1021.5mb 72f 68f
10:36 13 14 mph 1021.6mb 72f 68f
10:30 11 13 mph 1021.7mb 72f 68f
10:24 10 13 mph 1021.9mb 72f 68f
10:18 10 13 mph 1021.9mb 72f 68f
10:12 11 13 mph 1021.9mb 72f 68f
10:06 13 14 mph 1021.8mb 72f 68f
10:00 11 16 mph 1021.8mb 72f 68f
9:54 13 16 mph 1021.8mb 72f 68f
9:48 14 16 mph 1021.9mb 72f 68f
9:42 17 18 mph 1021.8mb 72f 69f
9:36 17 20 mph 1021.8mb 72f 69f
9:30 17 20 mph 1021.7mb 72f 69f
9:24 14 18 mph 1021.7mb 73f 69f
9:18 16 18 mph 1021.8mb 73f 69f
9:12 17 20 mph 1021.8mb 73f 69f
9:06 18 22 mph 1021.8mb 73f 69f
9:00 18 20 mph 1021.7mb 73f 69f
8:54 17 20 mph 1021.8mb 73f 69f
8:48 16 18 mph 1021.8mb 73f 69f
8:42 16 20 mph 1021.8mb 73f 69f
8:36 16 20 mph 1021.9mb 73f 69f
8:30 17 21 mph 1021.8mb 73f 69f
8:24 16 21 mph 1021.8mb 73f 69f
8:18 18 22 mph 1021.7mb 73f 69f
8:12 16 20 mph 1021.6mb 73f 69f
8:06 18 20 mph 1021.7mb 73f 69f
8:00 18 21 mph 1021.7mb 73f 69f
7:54 17 21 mph 1021.7mb 73f 69f
7:48 17 20 mph 1021.7mb 73f 70f
7:42 16 20 mph 1021.7mb 73f 69f
7:36 17 20 mph 1021.7mb 73f 69f
7:30 17 21 mph 1021.7mb 72f 69f
7:24 16 18 mph 1021.6mb 72f 69f
7:18 17 21 mph 1021.7mb 72f 69f
7:12 18 20 mph 1021.7mb 72f 69f
7:06 17 22 mph 1021.8mb 72f 69f
7:00 18 22 mph 1021.8mb 72f 69f
6:54 18 22 mph 1021.9mb 72f 69f
6:48 20 22 mph 1022mb 72f 69f
6:42 21 23 mph 1022mb 72f 69f
6:36 21 24 mph 1022mb 72f 69f
6:30 22 24 mph 1021.9mb 72f 69f
6:24 22 24 mph 1021.9mb 72f 69f
6:18 23 24 mph 1021.9mb 72f 69f
6:12 23 25 mph 1021.9mb 72f 69f
6:06 22 25 mph 1021.9mb 72f 69f
6:00 22 25 mph 1021.9mb 72f 69f
5:54 22 25 mph 1022mb 72f 69f
5:48 22 24 mph 1022mb 72f 69f
5:42 22 24 mph 1022mb 72f 69f
5:36 22 25 mph 1022mb 72f 69f
5:30 21 23 mph 1022mb 72f 69f
5:24 22 24 mph 1022.1mb 72f 69f
5:18 21 23 mph 1022.2mb 72f 70f
5:12 20 25 mph 1022.3mb 72f 69f
5:06 22 24 mph 1022.3mb 72f 69f
5:00 23 25 mph 1022.2mb 72f 69f
4:54 22 24 mph 1022.3mb 72f 69f
4:48 22 24 mph 1022.4mb 72f 69f
4:42 22 24 mph 1022.5mb 72f 69f
4:36 22 24 mph 1022.5mb 72f 69f
4:30 23 25 mph 1022.5mb 72f 69f
4:24 23 26 mph 1022.5mb 72f 69f
4:18 22 25 mph 1022.6mb 72f 69f
4:12 22 24 mph 1022.7mb 72f 69f
4:06 21 23 mph 1022.8mb 72f 69f
4:00 21 25 mph 1023mb 72f 69f
3:54 21 24 mph 1023mb 72f 69f
3:48 21 24 mph 1023mb 72f 69f
3:42 21 24 mph 1023.1mb 72f 69f
3:36 20 24 mph 1023.1mb 72f 69f
3:30 20 24 mph 1023.3mb 72f 69f
3:24 21 24 mph 1023.3mb 72f 69f
3:18 20 22 mph 1023.4mb 72f 69f
3:12 21 22 mph 1023.4mb 72f 69f
3:06 21 23 mph 1023.5mb 72f 69f
3:00 21 23 mph 1023.5mb 72f 68f
2:54 21 23 mph 1023.5mb 72f 69f
2:48 21 23 mph 1023.5mb 72f 68f
2:42 22 24 mph 1023.6mb 72f 68f
2:36 21 24 mph 1023.6mb 72f 68f
2:30 21 22 mph 1023.8mb 72f 68f
2:24 17 22 mph 1023.9mb 72f 69f
2:18 17 21 mph 1024.1mb 72f 68f
2:12 18 21 mph 1024.1mb 72f 68f
2:06 16 20 mph 1024.1mb 72f 68f
2:00 17 21 mph 1024.1mb 72f 68f
1:54 16 20 mph 1024.2mb 72f 68f
1:48 16 18 mph 1024.4mb 72f 68f
1:42 17 20 mph 1024.4mb 72f 68f
1:36 16 21 mph 1024.5mb 72f 68f
1:30 18 20 mph 1024.5mb 72f 68f
1:24 17 21 mph 1024.5mb 72f 67f
1:18 16 20 mph 1024.6mb 72f 68f
1:12 16 18 mph 1024.6mb 72f 67f
1:06 16 18 mph 1024.7mb 72f 67f
1:00 17 18 mph 1024.6mb 72f 67f
12:54 16 17 mph 1024.7mb 72f 67f
12:48 15 18 mph 1024.8mb 72f 67f
12:42 15 18 mph 1024.9mb 72f 67f
12:36 16 18 mph 1024.9mb 72f 67f
12:30 15 16 mph 1025mb 72f 67f
12:24 15 16 mph 1025.1mb 72f 67f
12:18 14 16 mph 1025.2mb 72f 67f
12:12 16
mph
1025.3mb 72f 67f
12:06 15 16 mph 1025.4mb 72f 67f
12:00 14 17 mph 1025.5mb 72f 67f
11:54 15 16 mph 1025.5mb 72f 67f
11:48 16 17 mph 1025.6mb 72f 67f
11:42 14 16 mph 1025.6mb 72f 67f
11:36 15 16 mph 1025.6mb 72f 66f
11:30 14 16 mph 1025.7mb 72f 66f
11:24 14 15 mph 1025.7mb 72f 66f
11:18 14 16 mph 1025.8mb 72f 66f
11:12 13 16 mph 1025.9mb 72f 66f
11:06 14 16 mph 1025.9mb 72f 66f
11:00 14 15 mph 1025.9mb 72f 66f
10:54 13 15 mph 1025.9mb 72f 66f
10:48 11 15 mph 1025.9mb 72f 66f
10:42 13 17 mph 1025.8mb 72f 66f
10:36 13 15 mph 1025.8mb 72f 66f
10:30 13 15 mph 1025.9mb 72f 66f
10:24 11 15 mph 1025.9mb 72f 66f
10:18 13 15 mph 1025.9mb 72f 66f
10:12 11 14 mph 1025.9mb 72f 66f
10:06 11 14 mph 1025.9mb 72f 66f
10:00 13 14 mph 1025.9mb 72f 65f
9:54 10 13 mph 1025.9mb 72f 65f
9:48 11 14 mph 1026mb 72f 65f
9:42 9 11 mph 1026mb 72f 65f
9:36 9 13 mph 1026mb 72f 65f
9:30 9 11 mph 1026mb 72f 65f
9:24 11 13 mph 1026.1mb 72f 65f
9:18 11 13 mph 1026mb 72f 65f
9:12 10 13 mph 1026mb 72f 65f
9:06 11 14 mph 1026mb 71f 64f
9:00 10 13 mph 1026.1mb 71f 65f
8:54 10 11 mph 1026.2mb 71f 65f
8:48 10 13 mph 1026.2mb 71f 64f
8:42 10 13 mph 1026.2mb 71f 64f
8:36 11 14 mph 1026.3mb 71f 65f
8:30 9 11 mph 1026.3mb 71f 64f
8:24 9 11 mph 1026.3mb 71f 64f
8:18 3 7 mph 1026.4mb 71f 64f
8:12 5 6 mph 1026.4mb 71f 63f
8:06 5
mph
1026.5mb 71f 62f
8:00 2 5 mph 1026.4mb 71f 62f
7:54 2 3 mph 1026.4mb 71f 62f
7:48 2 5 mph 1026.4mb 71f 62f
7:42 3 5 mph 1026.4mb 71f 62f
7:36 3 5 mph 1026.3mb 71f 62f
7:30 1 3 mph 1026.3mb 71f 61f
7:24 1 3 mph 1026.2mb 71f 61f
7:18 1 3 mph 1026.2mb 71f 61f
7:12 2 3 mph 1026.2mb 71f 61f
7:06 3 6 mph 1026.3mb 71f 61f
7:00 5 6 mph 1026.4mb 71f 61f
6:54 5 6 mph 1026.3mb 71f 61f
6:48 3 5 mph 1026.4mb 71f 61f
6:42 2 3 mph 1026.2mb 71f 61f
6:36 2 3 mph 1026.3mb 71f 62f
6:30 2
mph
1026.3mb 71f 62f
6:24 2 5 mph 1026.2mb 71f 62f
6:18 3 5 mph 1026.2mb 71f 62f
6:12 2 3 mph 1026.1mb 71f 62f
6:06 3
mph
1026mb 71f 62f
6:00 5
mph
1026mb 71f 62f
5:54 5 6 mph 1025.9mb 71f 61f
5:48 5 6 mph 1025.8mb 71f 61f
5:42 5 6 mph 1025.8mb 71f 62f
5:36 5 6 mph 1025.8mb 71f 62f
5:30 3 6 mph 1025.8mb 71f 62f
5:24 2 5 mph 1025.7mb 71f 62f
5:18 2 7 mph 1025.8mb 72f 63f
5:12 7 10 mph 1025.7mb 72f 64f
5:06 8 9 mph 1025.6mb 72f 64f
5:00 8 9 mph 1025.5mb 72f 64f
4:54 8 9 mph 1025.5mb 72f 64f
4:48 8 10 mph 1025.5mb 72f 64f
4:42 9 10 mph 1025.3mb 72f 64f
4:36 9 11 mph 1025.3mb 72f 64f
4:30 9 11 mph 1025.2mb 72f 64f
4:24 9 10 mph 1025.3mb 72f 64f
4:18 9 11 mph 1025.2mb 72f 64f
4:12 8 10 mph 1025.3mb 72f 64f
4:06 8 13 mph 1025.3mb 72f 65f
4:00 9 11 mph 1025.4mb 72f 64f
3:54 10 13 mph 1025.4mb 72f 64f
3:48 10 13 mph 1025.4mb 72f 64f
3:42 10 13 mph 1025.4mb 72f 64f
3:36 11 14 mph 1025.3mb 72f 64f
3:30 11 14 mph 1025.3mb 72f 64f
3:24 11 14 mph 1025.3mb 72f 64f
3:18 11 14 mph 1025.3mb 72f 64f
3:12 11 13 mph 1025.4mb 72f 64f
3:06 11 14 mph 1025.4mb 72f 64f
3:00 11 14 mph 1025.5mb 72f 64f
2:54 11 13 mph 1025.5mb 72f 64f
2:48 11 14 mph 1025.5mb 72f 65f
2:42 11 14 mph 1025.5mb 72f 65f
2:36 13 14 mph 1025.5mb 72f 65f
2:30 11 14 mph 1025.4mb 72f 65f
2:24 10 13 mph 1025.4mb 72f 65f
2:18 10 13 mph 1025.5mb 72f 65f
2:12 11 14 mph 1025.5mb 72f 65f
2:06 11 14 mph 1025.5mb 72f 65f
2:00 11 13 mph 1025.5mb 72f 65f
1:54 11 13 mph 1025.5mb 72f 65f
1:48 10 13 mph 1025.6mb 73f 65f
1:42 10 14 mph 1025.6mb 73f 65f
1:36 11 13 mph 1025.5mb 73f 65f
1:30 11 13 mph 1025.4mb 73f 65f
1:24 11 13 mph 1025.5mb 73f 65f
1:18 11 14 mph 1025.4mb 73f 65f
1:12 11 14 mph 1025.3mb 73f 65f
1:06 11 14 mph 1025.3mb 73f 65f
1:00 11 14 mph 1025.3mb 73f 65f
12:54 11 13 mph 1025.3mb 73f 65f
12:48 11 14 mph 1025.2mb 73f 65f
12:42 13 14 mph 1025.2mb 73f 65f
12:36 11 14 mph 1025.2mb 73f 65f
12:30 13 15 mph 1025.2mb 73f 65f
12:24 13 15 mph 1025.1mb 73f 65f
12:18 13 15 mph 1025mb 73f 65f
12:12 13 15 mph 1024.9mb 73f 65f
12:06 13 15 mph 1024.9mb 73f 65f
12:00 14 15 mph 1024.9mb 73f 65f
vie 08/29 11:54 11 15 mph 1024.9mb 73f 65f
11:48 11 14 mph 1024.9mb 73f 65f
11:42 13 14 mph 1024.9mb 73f 65f
11:36 11 14 mph 1025mb 73f 65f
11:30 11 14 mph 1024.9mb 73f 65f
11:24 10 11 mph 1024.9mb 73f 65f
11:18 10 11 mph 1024.9mb 73f 65f
11:12 9 10 mph 1024.9mb 73f 65f
11:06 9 11 mph 1025mb 73f 65f
11:00 9 10 mph 1025mb 73f 65f
10:54 10
mph
1025.1mb 73f 65f
10:48 8 9 mph 1025mb 73f 65f
10:42 8 9 mph 1025.1mb 73f 65f
10:36 8 10 mph 1025.1mb 73f 65f
10:30 8 10 mph 1025.2mb 73f 65f
10:24 9 10 mph 1025.2mb 73f 65f
10:18 9 10 mph 1025.2mb 73f 65f
10:12 8 9 mph 1025.1mb 73f 65f
10:06 9 10 mph 1025mb 73f 65f
10:00 8 9 mph 1024.9mb 73f 65f
9:54 8 9 mph 1024.8mb 73f 65f
9:48 8 9 mph 1024.8mb 73f 66f
9:42 8 9 mph 1024.8mb 73f 65f
9:36 7 9 mph 1024.7mb 73f 65f
9:30 6 9 mph 1024.8mb 73f 65f
9:24 7 9 mph 1024.7mb 73f 65f
9:18 7 9 mph 1024.6mb 73f 66f
9:12 8 10 mph 1024.5mb 73f 66f
9:06 9 10 mph 1024.5mb 73f 66f
9:00 8 9 mph 1024.4mb 73f 66f
8:54 8 10 mph 1024.3mb 73f 66f
8:48 9 11 mph 1024.2mb 73f 66f
8:42 9 11 mph 1024.2mb 73f 67f
8:36 9 10 mph 1024.2mb 73f 67f
8:30 9 10 mph 1024.2mb 73f 67f
8:24 9 11 mph 1024mb 73f 67f
8:18 10 11 mph 1023.9mb 73f 67f
8:12 9 11 mph 1023.8mb 73f 67f
8:06 10
mph
1023.8mb 73f 67f
8:00 9 14 mph 1023.6mb 73f 67f
7:54 9 11 mph 1023.7mb 73f 68f
7:48 11 14 mph 1023.5mb 73f 68f
7:42 13 14 mph 1023.5mb 72f 68f
7:36 14 15 mph 1023.5mb 72f 68f
7:30 11 14 mph 1023.4mb 72f 69f
7:24 11 14 mph 1023.4mb 72f 69f
7:18 11 14 mph 1023.3mb 72f 69f
7:12 13 14 mph 1023.1mb 72f 69f
7:06 10 13 mph 1023.1mb 72f 69f
7:00 13 14 mph 1023mb 72f 69f
6:54 11 14 mph 1022.9mb 72f 69f
6:48 10 14 mph 1022.9mb 72f 70f
6:42 14 15 mph 1022.8mb 72f 70f
6:36 13 15 mph 1022.7mb 71f 70f
6:30 14 15 mph 1022.6mb 71f 70f
6:24 13 14 mph 1022.5mb 71f 70f
6:18 13 14 mph 1022.6mb 71f 70f
6:12 11 13 mph 1022.6mb 71f 71f
6:06 10 13 mph 1022.5mb 71f 71f
6:00 11 13 mph 1022.5mb 72f 71f
5:54 11 14 mph 1022.3mb 72f 71f
5:48 11 14 mph 1022.4mb 72f 71f
5:42 13 15 mph 1022.4mb 72f 71f
5:36 13 15 mph 1022.3mb 73f 71f
5:30 13 14 mph 1022.3mb 73f 71f
5:24 11 14 mph 1022.3mb 73f 71f
5:18 13 15 mph 1022.3mb 73f 71f
5:12 11 15 mph 1022.2mb 73f 71f
5:06 15 17 mph 1022.1mb 73f 71f
5:00 14 15 mph 1022.1mb 74f 71f
4:54 13 15 mph 1022.1mb 74f 71f
4:48 11 14 mph 1022.1mb 74f 71f
4:42 11 14 mph 1022mb 74f 71f
4:36 14 16 mph 1022mb 74f 71f
4:30 14 16 mph 1021.9mb 74f 71f
4:24 14 16 mph 1021.8mb 74f 71f
4:18 14 16 mph 1021.9mb 74f 71f
4:12 15 16 mph 1021.8mb 74f 71f
4:06 14 15 mph 1021.8mb 74f 71f
4:00 14
mph
1021.7mb 74f 71f
3:54 13 14 mph 1021.7mb 74f 71f
3:48 8 9 mph 1021.8mb 74f 72f
3:42 8
mph
1021.8mb 74f 72f
3:36 6 8 mph 1021.9mb 74f 72f
3:30 7 8 mph 1021.9mb 74f 72f
3:24 6 7 mph 1021.9mb 74f 72f
3:18 7 8 mph 1021.8mb 74f 72f
3:12 6 8 mph 1021.8mb 74f 71f
3:06 7 8 mph 1021.9mb 74f 72f
3:00 7
mph
1021.8mb 74f 72f
2:54 5 6 mph 1021.8mb 74f 72f
2:48 5 6 mph 1021.8mb 74f 72f
2:42 5 6 mph 1021.7mb 74f 72f
2:36 5 6 mph 1021.8mb 74f 72f
2:30 5 7 mph 1021.8mb 74f 72f
2:24 7 10 mph 1021.8mb 74f 71f
2:18 8 9 mph 1021.8mb 73f 71f
2:12 6 7 mph 1021.8mb 73f 71f
2:06 5 6 mph 1021.9mb 73f 72f
2:00 2 3 mph 1021.9mb 73f 73f
1:54 2 6 mph 1021.9mb 73f 72f
1:48 5 6 mph 1021.8mb 73f 71f
1:42 2 3 mph 1021.8mb 73f 73f
1:36 1 3 mph 1021.8mb 73f 73f
1:30  -  1 mph 1021.8mb 73f 73f
1:24 2 3 mph 1021.8mb 73f 73f
1:18 3 5 mph 1021.8mb 73f 73f
1:12 3 5 mph 1021.9mb 73f 73f
1:06 3 7 mph 1021.8mb 73f 72f
1:00 2 6 mph 1021.7mb 73f 72f
12:54 5 6 mph 1021.7mb 73f 73f
12:48 3 7 mph 1021.7mb 73f 73f
12:42 7 8 mph 1021.7mb 73f 72f
12:36 5 7 mph 1021.7mb 73f 72f
12:30 2 7 mph 1021.8mb 73f 71f
12:24 5 8 mph 1021.9mb 73f 73f
12:18 5 7 mph 1021.8mb 73f 73f
12:12 3 5 mph 1021.8mb 72f 73f
12:06 1 2 mph 1021.8mb 72f 72f
12:00 1 6 mph 1021.8mb 72f 72f
11:54 2 5 mph 1021.9mb 72f 72f
11:48  -  2 mph 1021.8mb 72f 71f
11:42 2 7 mph 1021.8mb 72f 73f
11:36 6 7 mph 1021.8mb 72f 72f
11:30 3 6 mph 1021.8mb 72f 72f
11:24 5 10 mph 1021.7mb 72f 71f
11:18 3 7 mph 1021.7mb 72f 72f
11:12 3 9 mph 1021.8mb 72f 72f
11:06 5 7 mph 1021.8mb 72f 71f
11:00  -  2 mph 1021.8mb 72f 70f
10:54 1 2 mph 1021.7mb 72f 72f
10:48 3 7 mph 1021.6mb 72f 72f
10:42 2 6 mph 1021.6mb 72f 72f
10:36 2 9 mph 1021.5mb 72f 71f
10:30 7 11 mph 1021.5mb 72f 70f
10:24 2 7 mph 1021.5mb 72f 70f
10:18 7 11 mph 1021.5mb 72f 69f
10:12 9 11 mph 1021.4mb 72f 69f
10:06 9 11 mph 1021.4mb 72f 69f
10:00 8 11 mph 1021.3mb 72f 69f
9:54 6 14 mph 1021.2mb 72f 68f
9:48 8 11 mph 1021.2mb 72f 68f
9:42 7 10 mph 1021.1mb 72f 68f
9:36 7 9 mph 1021.1mb 72f 68f
9:30 7 9 mph 1021.1mb 72f 68f
9:24 7 9 mph 1021.1mb 72f 67f
9:18 8 11 mph 1020.9mb 72f 67f
9:12 10 11 mph 1020.9mb 72f 67f
9:06 10 13 mph 1020.8mb 72f 67f
9:00 9 13 mph 1020.8mb 72f 67f
8:54 10 14 mph 1020.7mb 72f 66f
8:48 11 15 mph 1020.5mb 72f 66f
8:42 11 14 mph 1020.5mb 72f 65f
8:36 13 16 mph 1020.5mb 72f 65f
8:30 14 16 mph 1020.4mb 72f 65f
8:24 11 14 mph 1020.3mb 72f 65f
8:18 14 17 mph 1020.3mb 72f 65f
8:12 13 15 mph 1020.3mb 72f 64f
8:06 13 15 mph 1020.2mb 72f 64f
8:00 14 15 mph 1020.1mb 72f 64f
7:54 14 15 mph 1020mb 72f 64f
7:48 13 15 mph 1020mb 72f 64f
7:42 11 14 mph 1019.9mb 72f 64f
7:36 13 16 mph 1019.9mb 72f 63f
7:30 14 16 mph 1019.7mb 72f 63f
7:24 14 17 mph 1019.6mb 72f 63f
7:18 14 17 mph 1019.6mb 72f 63f
7:12 14 16 mph 1019.5mb 72f 63f
7:06 13 17 mph 1019.4mb 72f 63f
7:00 14 15 mph 1019.3mb 72f 63f
6:54 13 16 mph 1019.2mb 72f 63f
6:48 14 16 mph 1019.1mb 72f 63f
6:42 13 17 mph 1019.1mb 72f 63f
6:36 14 18 mph 1019mb 72f 63f
6:30 13 16 mph 1018.9mb 72f 63f
6:24 11 16 mph 1018.8mb 72f 63f
6:18 13 14 mph 1018.6mb 71f 63f
6:12 11 18 mph 1018.5mb 71f 62f
6:06 13 15 mph 1018.4mb 72f 63f
6:00 13 16 mph 1018.3mb 72f 62f
5:54 14 21 mph 1018.3mb 72f 63f
5:48 14 17 mph 1018.2mb 72f 62f
5:42 15 18 mph 1018mb 72f 62f
5:36 15 16 mph 1018mb 72f 62f
5:30 14 17 mph 1017.9mb 73f 62f
5:24 14 17 mph 1017.8mb 73f 62f
5:18 14 17 mph 1017.8mb 73f 63f
5:12 15 17 mph 1017.7mb 73f 62f
5:06 15 18 mph 1017.6mb 73f 62f
5:00 15 18 mph 1017.6mb 73f 62f
4:54 16 20 mph 1017.5mb 73f 62f
4:48 16 20 mph 1017.4mb 73f 62f
4:42 16 20 mph 1017.4mb 73f 62f
4:36 17 21 mph 1017.3mb 73f 63f
4:30 17 20 mph 1017.3mb 73f 63f
4:24 17 20 mph 1017.2mb 73f 62f
4:18 17 21 mph 1017.2mb 73f 63f
4:12 17 20 mph 1017.2mb 73f 63f
4:06 17 18 mph 1017.1mb 73f 63f
4:00 16 20 mph 1017.1mb 73f 63f
3:54 16 18 mph 1017.1mb 73f 63f
3:48 16 18 mph 1017.1mb 73f 63f
3:42 15 17 mph 1017.2mb 73f 63f
3:36 15 17 mph 1017.2mb 73f 62f
3:30 15 17 mph 1017.1mb 73f 62f
3:24 14 16 mph 1017.1mb 73f 63f
3:18 14 17 mph 1017.1mb 73f 63f
3:12 14 16 mph 1017mb 73f 63f
3:06 14 17 mph 1017.1mb 73f 63f
3:00 14 16 mph 1017mb 73f 63f
2:54 14 16 mph 1017mb 73f 63f
2:48 14 16 mph 1017mb 73f 63f
2:42 13 16 mph 1017mb 73f 63f
2:36 14 16 mph 1016.9mb 73f 63f
2:30 15 17 mph 1016.8mb 73f 63f
2:24 15 16 mph 1016.9mb 73f 63f
2:18 14 17 mph 1016.9mb 73f 64f
2:12 15 17 mph 1016.8mb 73f 64f
2:06 15 16 mph 1016.7mb 73f 64f
2:00 14 16 mph 1016.8mb 73f 64f
1:54 13 15 mph 1016.6mb 73f 64f
1:48 11 15 mph 1016.7mb 73f 64f
1:42 14 16 mph 1016.5mb 73f 64f
1:36 15 17 mph 1016.7mb 73f 64f
1:30 15 17 mph 1016.6mb 73f 64f
1:24 14 16 mph 1016.6mb 73f 64f
1:18 14 16 mph 1016.6mb 73f 65f
1:12 14 15 mph 1016.5mb 73f 65f
1:06 14 15 mph 1016.3mb 73f 65f
1:00 14 17 mph 1016.3mb 73f 65f
12:54 14 16 mph 1016.2mb 73f 66f
12:48 14 20 mph 1016.2mb 73f 66f
12:42 16 18 mph 1016mb 73f 66f
12:36 15 18 mph 1016mb 73f 66f
12:30 15 18 mph 1015.9mb 73f 66f
12:24 15 17 mph 1016mb 73f 66f
12:18 14 16 mph 1015.9mb 73f 67f
12:12 14 17 mph 1015.8mb 73f 67f
12:06 14 18 mph 1015.7mb 73f 67f
12:00 15 20 mph 1015.7mb 73f 68f
jue 08/28 11:54 15 17 mph 1015.6mb 74f 68f
11:48 15 18 mph 1015.7mb 74f 68f
11:42 16 21 mph 1015.6mb 74f 68f
11:36 16 18 mph 1015.5mb 74f 68f
11:30 15 17 mph 1015.4mb 74f 68f
11:24 17 20 mph 1015.4mb 74f 69f
11:18 14 17 mph 1015.3mb 74f 69f
11:12 11 14 mph 1015.4mb 74f 68f
11:06 14 17 mph 1015.3mb 74f 69f
11:00 13 16 mph 1015.3mb 74f 69f
10:54 13 17 mph 1015.3mb 74f 69f
10:48 11 18 mph 1015.2mb 74f 69f
10:42 15 18 mph 1015mb 74f 70f
10:36 14 17 mph 1015mb 74f 70f
10:30 14 17 mph 1014.8mb 74f 70f
10:24 14 16 mph 1014.8mb 74f 70f
10:18 11 14 mph 1014.7mb 73f 69f
10:12 13 17 mph 1014.7mb 73f 70f
10:06 14 18 mph 1014.6mb 73f 71f
10:00 15 16 mph 1014.5mb 73f 70f
9:54 14 17 mph 1014.5mb 73f 71f
9:48 16 20 mph 1014.4mb 73f 71f
9:42 16 20 mph 1014.3mb 73f 71f
9:36 16 18 mph 1014.2mb 73f 71f
9:30 17 20 mph 1014.1mb 73f 71f
9:24 15 17 mph 1014mb 73f 71f
9:18 15 16 mph 1013.9mb 73f 71f
9:12 14 17 mph 1013.8mb 73f 71f
9:06 14 16 mph 1013.6mb 74f 72f
9:00 14 17 mph 1013.6mb 74f 72f
8:54 16 20 mph 1013.4mb 74f 72f
8:48 18 22 mph 1013.3mb 74f 72f
8:42 18 21 mph 1013.2mb 74f 72f
8:36 20 23 mph 1013.1mb 74f 72f
8:30 17 20 mph 1013mb 74f 72f
8:24 18 21 mph 1012.9mb 74f 73f
8:18 18 21 mph 1012.8mb 74f 73f
8:12 18 20 mph 1012.8mb 74f 73f
8:06 17 22 mph 1012.6mb 73f 73f
8:00 20 22 mph 1012.4mb 73f 73f
7:54 16 20 mph 1012.4mb 74f 73f
7:48 16 18 mph 1012.2mb 74f 73f
7:42 14 17 mph 1012.2mb 74f 73f
7:36 16 18 mph 1012.1mb 74f 74f
7:30 17 20 mph 1012mb 74f 74f
7:24 18 24 mph 1011.8mb 74f 74f
7:18 17 22 mph 1011.7mb 74f 74f
7:12 16 20 mph 1011.5mb 74f 75f
7:06 14 22 mph 1011.5mb 74f 75f
7:00 21 22 mph 1011.4mb 75f 75f
6:54 20 22 mph 1011.2mb 75f 75f
6:48 21 24 mph 1011.1mb 75f 75f
6:42 21 24 mph 1011mb 75f 75f
6:36 17 24 mph 1010.9mb 75f 75f
6:30 18 21 mph 1010.8mb 75f 76f
6:24 16 18 mph 1010.8mb 75f 76f
6:18 15 20 mph 1010.7mb 75f 76f
6:12 16 18 mph 1010.6mb 75f 76f
6:06 14 22 mph 1010.6mb 75f 77f
6:00 17 18 mph 1010.5mb 75f 76f
5:54 16 18 mph 1010.5mb 75f 76f
5:48 16 21 mph 1010.5mb 75f 76f
5:42 18 21 mph 1010.4mb 74f 77f
5:36 16 20 mph 1010.3mb 74f 77f
5:30 17 22 mph 1010.3mb 74f 76f
5:24 21 24 mph 1010.2mb 74f 76f
5:18 18 23 mph 1010.1mb 74f 76f
5:12 21 24 mph 1010mb 74f 77f
5:06 15 22 mph 1010mb 74f 77f
5:00 17 20 mph 1009.9mb 74f 77f
4:54 16 18 mph 1009.9mb 74f 77f
4:48 16 18 mph 1009.9mb 74f 77f
4:42 16 22 mph 1009.8mb 74f 77f
4:36 20 22 mph 1009.6mb 74f 76f
4:30 16 21 mph 1009.6mb 74f 77f
4:24 20 23 mph 1009.5mb 74f 77f
4:18 20 22 mph 1009.4mb 74f 77f
4:12 17 21 mph 1009.4mb 74f 77f
4:06 15 21 mph 1009.4mb 74f 78f
4:00 16 20 mph 1009.4mb 74f 77f
3:54 16 22 mph 1009.3mb 74f 78f
3:48 15 21 mph 1009.3mb 74f 77f
3:42 21 24 mph 1009.2mb 74f 77f
3:36 18 24 mph 1009.2mb 74f 77f
3:30 22 23 mph 1009.1mb 74f 77f
3:24 16 21 mph 1009.1mb 74f 78f
3:18 16 18 mph 1009.1mb 74f 78f
3:12 15 21 mph 1009mb 74f 77f
3:06 17 22 mph 1009mb 74f 77f
3:00 14 15 mph 1009.1mb 74f 77f
2:54 13 15 mph 1009.1mb 74f 77f
2:48 11 16 mph 1009.1mb 74f 76f
2:42 16 20 mph 1009.1mb 74f 76f
2:36 14 21 mph 1009.1mb 74f 76f
2:30 18 21 mph 1009mb 74f 77f
2:24 15 20 mph 1009.1mb 74f 76f
2:18 20 21 mph 1009mb 74f 77f
2:12 17 20 mph 1009mb 74f 77f
2:06 14 23 mph 1009.1mb 74f 76f
2:00 21 22 mph 1009.1mb 74f 76f
1:54 14 18 mph 1009.2mb 73f 76f
1:48 16 21 mph 1009.2mb 73f 76f
1:42 18 22 mph 1009.2mb 73f 76f
1:36 17 20 mph 1009.1mb 73f 76f
1:30 16 22 mph 1009.1mb 73f 76f
1:24 15 18 mph 1009.1mb 73f 76f
1:18 15 22 mph 1009.1mb 73f 76f
1:12 18 22 mph 1009mb 73f 75f